This is the latest recevied weather packets stored in our database for station/object N3FKR. If no packets are shown the sender has not sent any weather packets the latest 10 day(s).
| Time | Temp. | Humidity | Pressure | Rain* | Wind** | Luminosity | Snow |
|---|---|---|---|---|---|---|---|
| 1788562323 | 27.22° C | 71% | 1013.7 hPa | 0 mm | - | 25 W/m² | - |
| 1788562022 | 27.78° C | 72% | 1013.7 hPa | 0 mm | - | 29 W/m² | - |
| 1788561717 | 27.78° C | 70% | 1013.9 hPa | 0 mm | - | 44 W/m² | - |
| 1788561411 | 27.78° C | 71% | 1014 hPa | 0 mm | - | 50 W/m² | - |
| 1788561106 | 27.78° C | 70% | 1014 hPa | 0 mm | - | 48 W/m² | - |
| 1788560801 | 28.33° C | 71% | 1013.9 hPa | 0 mm | - | 58 W/m² | - |
| 1788560497 | 28.33° C | 69% | 1014.1 hPa | 0 mm | - | 57 W/m² | - |
| 1788560197 | 28.33° C | 69% | 1014 hPa | 0 mm | - | 63 W/m² | - |
| 1788559897 | 28.89° C | 68% | 1013.9 hPa | 0 mm | - | 66 W/m² | - |
| 1788559592 | 30° C | 64% | 1013.8 hPa | 0 mm | - | 104 W/m² | - |
| 1788559287 | 29.44° C | 66% | 1013.8 hPa | 0 mm | - | 155 W/m² | - |
| 1788558981 | 28.89° C | 66% | 1013.9 hPa | 0 mm | - | 145 W/m² | - |
| 1788558678 | 28.33° C | 69% | 1014 hPa | 0 mm | - | 154 W/m² | - |
| 1788558378 | 28.33° C | 68% | 1014 hPa | 0 mm | - | 98 W/m² | - |
| 1788558074 | 28.89° C | 68% | 1014 hPa | 0 mm | - | 70 W/m² | - |
| 1788557771 | 29.44° C | 67% | 1013.8 hPa | 0 mm | - | 75 W/m² | - |
| 1788557468 | 30° C | 66% | 1014 hPa | 0 mm | - | 222 W/m² | - |
| 1788557168 | 30° C | 67% | 1014.1 hPa | 0 mm | - | 163 W/m² | - |
| 1788556863 | 29.44° C | 67% | 1014.1 hPa | 0 mm | - | 207 W/m² | - |
| 1788556562 | 28.89° C | 68% | 1014 hPa | 0 mm | - | 195 W/m² | - |
| 1788556258 | 28.89° C | 66% | 1013.9 hPa | 0 mm | - | 141 W/m² | - |
| 1788555957 | 29.44° C | 66% | 1014 hPa | 0 mm | - | 202 W/m² | - |
| 1788555653 | 28.89° C | 67% | 1014 hPa | 0 mm | - | 211 W/m² | - |
| 1788555348 | 28.89° C | 66% | 1014 hPa | 0 mm | - | 141 W/m² | - |
| 1788555045 | 29.44° C | 66% | 1013.6 hPa | 0 mm | - | 148 W/m² | - |
* Rain latest hour (hover to see other rain measurements)
** Current wind speed in m/s (hover to see current wind gust speed)